Weather at Wood County Airport

Public forecast

Using degrees Fahrenheit for public forecast. Weather courtesy of forecast.io.

Closest aviation weather report (METAR) to Wood County Airport

Closest report is Toledo Executive Airport, 12.4 nm (22.9 km) NNE.

2022/12/05 12:53 (retrieved 58 minutes ago)

KTDZ 051253Z AUTO 19008KT 10SM CLR M02/M07 A3001 RMK AO2 SLP170 T10221072

Closest aviation forecast (TAF) to Wood County Airport

Closest forecast is Eugene F. Kranz Toledo Express Airport, 14.2 nm (26.3 km) NW.

2022/12/05 12:22 (retrieved 1 hour ago)

TAF KTOL 051120Z 0512/0612 20009KT P6SM BKN250 FM060000 18005KT P6SM OVC050 FM060400 20004KT P6SM OVC025 FM060800 VRB03KT P6SM OVC015